Time;durP1;ratioP1;P1;durP2;ratioP2;P2;SDS_P1;SDS_P2;PMS_P1;PMS_P2;Temp;Humidity;BMP_temperature;BMP_pressure;BME280_temperature;BME280_humidity;BME280_pressure;Samples;Min_cycle;Max_cycle;Signal;HPM_P1;HPM_P2
2022/12/15 00:41:00;;;;;;;23.45;17.15;;;;;;;5.13;100.00;99302.28;5050080;28;21053;-68
2022/12/15 00:43:30;;;;;;;23.63;17.38;;;;;;;4.79;100.00;99228.16;5050096;28;20025;-69
2022/12/15 00:48:40;;;;;;;25.33;18.05;;;;;;;5.04;100.00;99214.28;5049950;28;20179;-69
2022/12/15 00:51:06;;;;;;;27.25;18.52;;;;;;;5.44;100.00;99287.44;5049751;28;20123;-68
2022/12/15 01:21:00;;;;;;;25.85;18.33;;;;;;;5.28;100.00;99218.88;5074201;28;20051;-69
2022/12/15 01:23:26;;;;;;;25.02;17.95;;;;;;;5.32;100.00;99229.72;5073685;28;20032;-69
2022/12/15 01:25:52;;;;;;;27.30;19.38;;;;;;;5.33;100.00;99218.78;5073846;28;20036;-68
2022/12/15 01:28:20;;;;;;;28.85;19.85;;;;;;;5.00;100.00;99160.63;5073521;28;20035;-69
2022/12/15 01:30:46;;;;;;;27.45;19.25;;;;;;;5.45;100.00;99231.16;5073401;28;20538;-69
2022/12/15 01:33:13;;;;;;;25.02;18.10;;;;;;;4.88;100.00;99150.78;5073521;28;20115;-68
2022/12/15 01:35:39;;;;;;;26.40;18.48;;;;;;;5.27;100.00;99186.97;5073328;28;20052;-69
2022/12/15 01:38:04;;;;;;;25.63;18.33;;;;;;;4.92;100.00;99138.97;5073276;28;20048;-69
2022/12/15 01:43:31;;;;;;;25.00;18.48;;;;;;;5.00;100.00;99097.69;5064047;28;20032;-68
2022/12/15 01:46:04;;;;;;;29.00;19.67;;;;;;;5.24;100.00;99184.50;5055066;28;20116;-68
2022/12/15 01:48:34;;;;;;;28.38;19.73;;;;;;;5.48;100.00;99190.75;5072948;28;20032;-68
2022/12/15 01:51:09;;;;;;;27.85;19.15;;;;;;;5.15;100.00;99111.66;5072576;28;20106;-68
2022/12/15 01:53:45;;;;;;;28.35;19.05;;;;;;;5.52;100.00;99184.78;5073374;28;20126;-68
2022/12/15 01:56:11;;;;;;;26.67;19.02;;;;;;;5.16;100.00;99114.16;5054455;28;20035;-68
2022/12/15 01:58:41;;;;;;;25.38;18.27;;;;;;;5.45;100.00;99161.41;5072648;28;20020;-68
2022/12/15 02:01:07;;;;;;;24.77;19.05;;;;;;;4.95;100.00;99066.72;5072248;28;20037;-69
2022/12/15 02:03:32;;;;;;;25.70;18.50;;;;;;;5.49;100.00;99157.94;5071687;28;20035;-69
2022/12/15 02:06:00;;;;;;;27.92;19.45;;;;;;;5.65;100.00;99148.38;5071217;28;20029;-68
2022/12/15 02:08:25;;;;;;;25.92;19.20;;;;;;;5.27;100.00;99089.53;5071705;28;20483;-68
2022/12/15 02:11:24;;;;;;;25.20;19.00;;;;;;;5.13;100.00;99073.88;5071474;28;20040;-68
2022/12/15 02:14:02;;;;;;;27.20;19.20;;;;;;;5.06;100.00;99057.25;5071558;28;20032;-68
2022/12/15 02:16:33;;;;;;;27.58;18.15;;;;;;;5.52;100.00;99139.44;5071680;28;20058;-69
2022/12/15 02:19:37;;;;;;;27.20;17.58;;;;;;;5.41;100.00;99144.69;5071384;28;20040;-69
2022/12/15 02:22:39;;;;;;;26.52;19.13;;;;;;;5.51;100.00;99153.72;5071273;28;20509;-69
2022/12/15 02:25:31;;;;;;;27.30;19.83;;;;;;;4.98;100.00;99063.31;5071368;28;20056;-69
2022/12/15 02:28:09;;;;;;;28.92;19.27;;;;;;;5.58;100.00;99152.75;5071455;28;20024;-69
2022/12/15 02:30:34;;;;;;;25.70;18.73;;;;;;;5.62;100.00;99141.72;5071111;28;20033;-68
2022/12/15 02:33:11;;;;;;;26.08;17.98;;;;;;;5.47;100.00;99128.63;5069970;28;20480;-68
2022/12/15 02:35:51;;;;;;;27.35;18.85;;;;;;;5.55;100.00;99140.19;5071408;28;20025;-69
2022/12/15 02:38:31;;;;;;;27.85;18.92;;;;;;;5.60;100.00;99112.38;5069942;28;20040;-70
2022/12/15 02:41:02;;;;;;;26.75;18.58;;;;;;;5.16;100.00;99057.91;5052803;28;20483;-69
2022/12/15 02:43:30;;;;;;;26.80;18.60;;;;;;;5.17;100.00;99074.66;5071629;28;20572;-70
2022/12/15 02:46:25;;;;;;;26.73;18.65;;;;;;;5.64;100.00;99147.56;5071289;28;20127;-70
2022/12/15 02:49:28;;;;;;;28.33;18.48;;;;;;;5.63;100.00;99155.13;5060990;28;20166;-69
2022/12/15 02:51:53;;;;;;;26.48;18.17;;;;;;;5.69;100.00;99155.00;5069765;28;20036;-69
2022/12/15 02:54:31;;;;;;;28.08;18.27;;;;;;;5.31;100.00;99081.94;5071095;28;20021;-70
2022/12/15 02:57:20;;;;;;;25.67;18.23;;;;;;;5.72;100.00;99142.34;5066061;28;20515;-69
2022/12/15 02:59:59;;;;;;;26.70;18.30;;;;;;;5.74;100.00;99128.84;5066603;28;20041;-70
2022/12/15 03:02:29;;;;;;;27.85;19.45;;;;;;;5.09;100.00;99013.56;5019026;28;1420484;-69
2022/12/15 03:04:56;;;;;;;29.48;20.88;;;;;;;5.63;100.00;99119.84;5070391;28;20086;-69
2022/12/15 03:07:25;;;;;;;32.10;21.52;;;;;;;5.82;100.00;99149.66;5071946;28;20498;-70
2022/12/15 03:09:51;;;;;;;32.28;20.58;;;;;;;5.60;100.00;99087.16;5071344;28;20664;-70
2022/12/15 03:12:16;;;;;;;33.47;21.40;;;;;;;5.68;100.00;99082.78;5070205;28;20120;-70
2022/12/15 03:14:41;;;;;;;29.08;20.30;;;;;;;5.63;100.00;99069.44;5071504;28;20124;-70
2022/12/15 03:17:07;;;;;;;30.65;20.27;;;;;;;5.89;100.00;99113.41;5071614;28;20123;-70
2022/12/15 03:19:33;;;;;;;27.77;19.02;;;;;;;6.14;100.00;99148.94;5071827;28;20491;-70
2022/12/15 03:21:58;;;;;;;30.02;20.00;;;;;;;6.17;100.00;99132.91;5071877;28;20039;-68
2022/12/15 03:24:23;;;;;;;34.40;22.17;;;;;;;6.02;100.00;99093.78;5064653;28;20043;-69
2022/12/15 03:26:49;;;;;;;28.17;21.17;;;;;;;5.61;100.00;99044.28;5070086;28;20097;-69
2022/12/15 03:29:16;;;;;;;29.20;20.60;;;;;;;5.82;100.00;99090.84;5071312;28;20131;-70
2022/12/15 03:31:43;;;;;;;32.50;21.48;;;;;;;5.81;100.00;99082.47;5070610;28;20043;-70
2022/12/15 03:34:09;;;;;;;29.05;20.65;;;;;;;6.27;100.00;99135.19;5071244;28;20029;-70
2022/12/15 03:36:34;;;;;;;31.85;20.33;;;;;;;6.13;100.00;99137.22;5071337;28;20029;-69
2022/12/15 03:38:59;;;;;;;27.88;19.85;;;;;;;5.66;100.00;99055.09;5071062;28;20062;-71
2022/12/15 03:41:25;;;;;;;29.13;20.33;;;;;;;6.14;100.00;99139.69;5050730;28;20479;-73
2022/12/15 03:43:50;;;;;;;27.40;19.40;;;;;;;5.95;100.00;99077.94;5051346;28;20121;-69
2022/12/15 03:46:16;;;;;;;30.33;20.45;;;;;;;5.84;100.00;99054.66;5050099;28;20492;-69
2022/12/15 03:48:41;;;;;;;30.88;20.20;;;;;;;6.05;100.00;99121.44;5057776;28;20033;-71
2022/12/15 03:51:06;;;;;;;29.95;20.15;;;;;;;5.49;100.00;99016.81;5070718;28;20029;-69
2022/12/15 03:53:32;;;;;;;30.85;19.00;;;;;;;6.16;100.00;99030.34;5069886;28;20028;-67
2022/12/15 03:55:57;;;;;;;34.97;23.50;;;;;;;6.70;100.00;99099.56;5069321;28;20167;-71
2022/12/15 03:58:22;;;;;;;36.55;25.48;;;;;;;6.08;100.00;99083.53;5071204;28;20020;-70
2022/12/15 04:00:48;;;;;;;39.45;27.77;;;;;;;5.63;100.00;99008.94;5071480;28;20060;-73
2022/12/15 04:03:13;;;;;;;35.85;25.65;;;;;;;5.98;100.00;99082.09;5071879;28;20041;-71
2022/12/15 04:05:39;;;;;;;38.28;24.33;;;;;;;5.99;100.00;99097.19;5071339;28;20111;-70
2022/12/15 04:08:07;;;;;;;35.50;26.08;;;;;;;5.52;100.00;98998.28;5070330;28;20158;-72
2022/12/15 04:10:34;;;;;;;42.13;26.88;;;;;;;5.46;100.00;98960.63;5071478;28;20519;-72
2022/12/15 04:13:07;;;;;;;35.55;24.65;;;;;;;6.05;100.00;99069.28;5071458;28;20093;-72
2022/12/15 04:15:35;;;;;;;34.80;23.02;;;;;;;6.00;100.00;99040.00;5072468;28;20040;-71
2022/12/15 04:18:06;;;;;;;37.67;25.15;;;;;;;5.22;100.00;98926.78;5072008;28;20088;-71
2022/12/15 04:20:32;;;;;;;39.13;25.47;;;;;;;6.17;100.00;99062.28;5054419;28;20398;-72
2022/12/15 04:22:57;;;;;;;43.35;27.05;;;;;;;6.16;100.00;99048.03;5071779;28;20036;-74
2022/12/15 05:31:50;;;;;;;41.05;26.75;;;;;;;5.96;100.00;99048.53;5070458;28;20043;-71
2022/12/15 05:34:17;;;;;;;43.85;27.52;;;;;;;5.95;100.00;99064.50;5070999;28;20033;-72
2022/12/15 05:36:43;;;;;;;43.33;27.90;;;;;;;5.79;100.00;99048.03;5069763;28;20029;-70
2022/12/15 05:39:08;;;;;;;43.00;27.67;;;;;;;5.97;100.00;99051.00;5059290;28;20032;-71
2022/12/15 05:41:33;;;;;;;44.60;28.88;;;;;;;6.27;100.00;99079.69;5069777;28;20036;-73
2022/12/15 05:43:59;;;;;;;30.70;16.10;;;;;;;9.38;100.00;99072.28;5062810;28;20037;-70
2022/12/15 05:46:24;;;;;;;45.40;28.63;;;;;;;6.94;100.00;99071.97;5056185;28;20067;-70
2022/12/15 05:48:50;;;;;;;43.63;28.50;;;;;;;6.35;100.00;99034.88;5070124;28;20028;-71
2022/12/15 05:51:15;;;;;;;42.95;28.73;;;;;;;6.55;100.00;99120.19;5069988;28;20483;-71
2022/12/15 05:53:41;;;;;;;45.35;28.63;;;;;;;6.49;100.00;99133.81;5086787;28;20483;-71
2022/12/15 05:56:12;;;;;;;44.30;28.50;;;;;;;6.22;100.00;99071.38;5071103;28;20309;-71
2022/12/15 05:58:39;;;;;;;32.45;20.92;;;;;;;6.70;100.00;99165.22;5073594;28;20033;-71
2022/12/15 06:01:13;;;;;;;43.35;29.17;;;;;;;6.40;100.00;99081.00;5073479;28;20052;-71
2022/12/15 06:03:39;;;;;;;45.10;29.60;;;;;;;6.74;100.00;99142.38;5073406;28;20021;-71
2022/12/15 06:06:06;;;;;;;45.78;30.23;;;;;;;6.63;100.00;99143.53;5072499;28;20106;-72
2022/12/15 06:08:34;;;;;;;48.72;32.13;;;;;;;6.68;100.00;99136.66;5074080;28;20039;-72
2022/12/15 06:11:00;;;;;;;49.20;32.28;;;;;;;6.28;100.00;99072.94;5073617;28;20063;-72
2022/12/15 06:13:26;;;;;;;46.70;30.95;;;;;;;6.69;100.00;99154.31;5073224;28;20033;-71
2022/12/15 06:16:03;;;;;;;53.00;35.00;;;;;;;6.60;100.00;99104.03;5073467;28;20040;-71
2022/12/15 06:18:32;;;;;;;52.38;35.00;;;;;;;6.46;100.00;99085.91;5070261;28;20487;-72
2022/12/15 06:20:57;;;;;;;46.22;32.50;;;;;;;6.87;100.00;99147.97;5089113;28;20028;-71
2022/12/15 06:23:23;;;;;;;50.78;33.97;;;;;;;6.99;100.00;99168.66;5073687;28;20190;-71
2022/12/15 06:25:49;;;;;;;50.17;32.63;;;;;;;6.96;100.00;99162.84;5073159;28;20032;-71
2022/12/15 06:28:15;;;;;;;49.42;33.60;;;;;;;6.14;100.00;99022.81;5071793;28;20131;-71
2022/12/15 06:30:41;;;;;;;44.08;31.30;;;;;;;6.97;100.00;99198.19;5072883;28;20043;-71
2022/12/15 06:33:06;;;;;;;49.75;33.10;;;;;;;6.51;100.00;99109.34;5071526;28;20036;-70
2022/12/15 06:35:35;;;;;;;51.00;35.85;;;;;;;6.60;100.00;99114.16;5072872;28;20033;-71
2022/12/15 06:38:01;;;;;;;63.80;41.40;;;;;;;6.60;100.00;99114.16;5072709;28;20052;-71
2022/12/15 06:40:26;;;;;;;59.65;41.80;;;;;;;6.93;100.00;99163.75;5072429;28;20060;-72
2022/12/15 06:42:51;;;;;;;63.50;42.58;;;;;;;6.71;100.00;99124.81;5073053;28;20559;-71
2022/12/15 06:45:17;;;;;;;64.07;42.75;;;;;;;6.39;100.00;99086.94;5072394;28;20036;-71
2022/12/15 06:47:42;;;;;;;66.55;45.85;;;;;;;6.65;100.00;99151.91;5072843;28;20036;-71
2022/12/15 06:50:08;;;;;;;80.20;53.65;;;;;;;6.28;100.00;99100.69;5071537;28;20033;-71
2022/12/15 06:52:34;;;;;;;74.32;50.97;;;;;;;6.76;100.00;99196.22;5072132;28;20056;-70
2022/12/15 06:54:59;;;;;;;88.07;62.63;;;;;;;6.49;100.00;99116.13;5071771;28;20070;-71
2022/12/15 06:57:24;;;;;;;101.03;70.25;;;;;;;6.58;100.00;99131.03;5071421;28;20028;-70
2022/12/15 06:59:50;;;;;;;100.57;72.85;;;;;;;6.74;100.00;99159.22;5072814;28;20086;-70
2022/12/15 07:02:16;;;;;;;82.00;57.75;;;;;;;6.46;100.00;99138.91;5072425;28;20617;-71
2022/12/15 07:04:42;;;;;;;88.32;60.90;;;;;;;6.91;100.00;99195.81;5071937;28;20025;-72
2022/12/15 07:07:10;;;;;;;81.68;57.85;;;;;;;6.71;100.00;99149.22;5071987;28;20467;-72
2022/12/15 07:09:36;;;;;;;81.13;58.50;;;;;;;6.82;100.00;99149.75;5072350;28;20016;-71
2022/12/15 07:12:04;;;;;;;124.03;69.90;;;;;;;7.17;100.00;99227.97;5072562;28;20043;-71
2022/12/15 07:14:30;;;;;;;120.47;67.20;;;;;;;6.94;100.00;99210.06;5070570;28;20383;-71
2022/12/15 07:16:55;;;;;;;87.47;55.35;;;;;;;7.09;100.00;99208.84;5072376;28;20035;-71
2022/12/15 07:19:21;;;;;;;57.22;38.40;;;;;;;6.27;100.00;99093.97;5072098;28;20037;-70
2022/12/15 07:21:46;;;;;;;49.88;32.67;;;;;;;6.73;100.00;99143.28;5071362;28;20032;-71
2022/12/15 07:24:11;;;;;;;46.08;29.85;;;;;;;6.58;100.00;99190.78;5072278;28;20092;-72
2022/12/15 07:26:38;;;;;;;47.75;30.85;;;;;;;6.39;100.00;99150.03;5071587;28;20085;-70
2022/12/15 07:29:03;;;;;;;47.92;30.85;;;;;;;6.48;100.00;99138.84;5070768;28;20438;-72
2022/12/15 07:31:29;;;;;;;47.95;32.58;;;;;;;7.09;100.00;99257.66;5071854;28;20058;-71
2022/12/15 07:33:56;;;;;;;76.35;51.45;;;;;;;6.48;100.00;99190.19;5071333;28;20032;-71
2022/12/15 07:36:22;;;;;;;71.10;45.97;;;;;;;7.01;100.00;99232.59;5070068;28;20064;-70
2022/12/15 07:38:47;;;;;;;61.45;41.08;;;;;;;6.85;100.00;99178.28;5070431;28;20032;-71
2022/12/15 07:41:14;;;;;;;68.50;44.00;;;;;;;6.91;100.00;99175.59;5071546;28;20033;-71
2022/12/15 07:43:39;;;;;;;53.35;36.15;;;;;;;6.78;100.00;99217.22;5071368;28;20037;-71
2022/12/15 07:46:05;;;;;;;44.90;32.80;;;;;;;7.12;100.00;99271.94;5071736;28;20036;-71
2022/12/15 07:48:31;;;;;;;49.65;34.35;;;;;;;7.08;100.00;99248.44;5071447;28;20525;-72
2022/12/15 07:50:57;;;;;;;47.28;32.15;;;;;;;7.39;100.00;99281.34;5071795;28;20098;-71
2022/12/15 07:53:26;;;;;;;45.50;31.42;;;;;;;7.10;100.00;99235.75;5071453;28;20113;-71
2022/12/15 07:55:54;;;;;;;51.38;32.97;;;;;;;6.86;100.00;99215.31;5071431;28;20499;-71
2022/12/15 07:58:19;;;;;;;52.33;34.17;;;;;;;7.24;100.00;99239.59;5071699;28;20055;-71
2022/12/15 08:00:44;;;;;;;71.97;44.92;;;;;;;7.50;100.00;99204.31;5071142;28;20499;-71
2022/12/15 08:03:10;;;;;;;47.10;32.13;;;;;;;7.35;100.00;99240.13;5071178;28;20111;-71
2022/12/15 08:05:35;;;;;;;45.80;30.25;;;;;;;7.38;100.00;99242.59;5071114;28;20414;-71
2022/12/15 08:08:01;;;;;;;50.45;30.98;;;;;;;7.06;100.00;99159.22;5069831;28;20060;-70
2022/12/15 08:10:26;;;;;;;45.42;30.40;;;;;;;6.89;100.00;99149.56;5070825;28;20447;-71
2022/12/15 08:12:52;;;;;;;50.42;32.42;;;;;;;6.74;100.00;99166.81;5086809;28;20529;-70
2022/12/15 08:15:17;;;;;;;52.97;35.70;;;;;;;7.51;100.00;99250.66;5070999;28;20482;-71
2022/12/15 08:17:43;;;;;;;56.90;36.53;;;;;;;7.69;100.00;99247.59;5070408;28;20120;-71
2022/12/15 08:20:08;;;;;;;60.97;42.05;;;;;;;7.73;100.00;99255.06;5070893;28;20407;-71
2022/12/15 08:22:34;;;;;;;64.35;42.92;;;;;;;7.42;100.00;99192.75;5070849;28;20024;-70
2022/12/15 08:24:59;;;;;;;64.32;43.55;;;;;;;6.93;100.00;99175.59;5070758;28;20457;-71
2022/12/15 08:27:26;;;;;;;68.90;46.65;;;;;;;7.12;100.00;99249.19;5070794;28;20028;-70
2022/12/15 08:29:51;;;;;;;68.95;46.10;;;;;;;7.06;100.00;99249.34;5070821;28;20558;-71
2022/12/15 08:32:17;;;;;;;62.85;44.88;;;;;;;6.43;100.00;99146.56;5070648;28;20090;-71
2022/12/15 08:34:42;;;;;;;65.05;44.03;;;;;;;7.57;100.00;99288.41;5070754;28;20029;-70
2022/12/15 08:37:08;;;;;;;73.63;48.75;;;;;;;7.18;100.00;99218.69;5070707;28;20024;-71
2022/12/15 08:39:33;;;;;;;62.67;43.60;;;;;;;7.32;100.00;99222.53;5070207;28;20059;-71
2022/12/15 08:41:59;;;;;;;66.30;45.63;;;;;;;7.41;100.00;99234.06;5070977;28;20101;-70
2022/12/15 08:44:24;;;;;;;68.20;47.33;;;;;;;8.04;100.00;99297.22;5070953;28;20478;-71
2022/12/15 08:46:50;;;;;;;63.83;45.25;;;;;;;8.34;100.00;99276.91;5070716;28;20021;-71
2022/12/15 08:49:15;;;;;;;63.63;45.63;;;;;;;8.57;100.00;99296.47;5070505;28;20029;-71
2022/12/15 08:51:41;;;;;;;59.17;43.28;;;;;;;8.76;100.00;99282.34;5070594;28;20032;-70
2022/12/15 08:54:07;;;;;;;57.78;42.67;;;;;;;8.09;100.00;99298.75;5069797;28;20037;-70
2022/12/15 08:56:34;;;;;;;54.13;39.72;;;;;;;8.36;100.00;99292.88;5070225;28;20036;-71
2022/12/15 08:59:01;;;;;;;58.45;41.13;;;;;;;8.68;100.00;99282.59;5069280;28;20513;-70
2022/12/15 09:01:30;;;;;;;65.32;44.92;;;;;;;8.12;100.00;99210.03;5068669;28;20052;-70
2022/12/15 09:03:56;;;;;;;61.72;42.90;;;;;;;8.48;100.00;99290.00;5070591;28;20029;-70
2022/12/15 09:06:25;;;;;;;55.88;38.75;;;;;;;8.51;100.00;99311.88;5069271;28;20372;-70
2022/12/15 09:08:55;;;;;;;56.67;40.33;;;;;;;8.47;100.00;99290.03;5070255;28;20037;-70
2022/12/15 09:11:22;;;;;;;56.75;40.17;;;;;;;8.79;100.00;99287.34;5070365;28;20070;-70
2022/12/15 09:13:47;;;;;;;62.92;42.90;;;;;;;8.17;100.00;99227.63;5070111;28;20520;-69
2022/12/15 09:16:16;;;;;;;57.22;40.05;;;;;;;8.48;100.00;99214.00;5070411;28;20111;-70
2022/12/15 09:18:44;;;;;;;54.05;38.58;;;;;;;8.37;100.00;99220.28;5070324;28;20033;-70
2022/12/15 09:21:10;;;;;;;51.30;38.15;;;;;;;8.99;100.00;99315.41;5068877;28;20151;-71
2022/12/15 09:23:36;;;;;;;49.28;35.75;;;;;;;8.30;100.00;99242.44;5069824;28;20115;-71
2022/12/15 09:26:04;;;;;;;48.85;35.00;;;;;;;8.24;100.00;99237.53;5068489;28;20471;-70
2022/12/15 09:28:30;;;;;;;46.78;33.13;;;;;;;8.71;100.00;99335.69;5070467;28;20423;-71
2022/12/15 09:31:29;;;;;;;43.88;32.38;;;;;;;8.70;100.00;99334.06;5074159;28;20101;-70
2022/12/15 09:33:57;;;;;;;47.95;33.45;;;;;;;8.79;100.00;99342.25;5069958;28;20033;-70
2022/12/15 09:36:23;;;;;;;47.83;35.20;;;;;;;8.46;100.00;99286.66;5073781;28;20036;-70
2022/12/15 09:38:49;;;;;;;49.60;35.45;;;;;;;9.09;100.00;99341.28;5072998;28;20035;-70
2022/12/15 09:41:14;;;;;;;51.78;33.55;;;;;;;9.21;100.00;99349.31;5072609;28;20029;-71
2022/12/15 09:43:43;;;;;;;47.47;32.75;;;;;;;9.27;100.00;99351.63;5072576;28;20029;-71
2022/12/15 09:46:35;;;;;;;40.58;30.25;;;;;;;9.18;100.00;99338.44;5073854;28;20020;-70
2022/12/15 09:49:10;;;;;;;57.65;39.55;;;;;;;8.92;100.00;99268.31;5072467;28;20040;-70
2022/12/15 09:51:44;;;;;;;49.63;36.13;;;;;;;8.81;100.00;99201.13;5073595;28;20033;-71
2022/12/15 09:54:10;;;;;;;49.25;33.30;;;;;;;9.03;100.00;99192.72;5073362;28;20125;-70
2022/12/15 09:56:54;;;;;;;50.63;37.10;;;;;;;9.21;100.00;99285.91;5072199;28;20036;-70
2022/12/15 09:59:40;;;;;;;43.30;32.83;;;;;;;9.53;100.00;99376.97;5073457;28;20426;-71
2022/12/15 10:02:52;;;;;;;46.33;35.15;;;;;;;9.65;100.00;99372.38;5073307;28;20041;-72
2022/12/15 10:05:36;;;;;;;40.85;30.45;;;;;;;9.47;100.00;99374.63;5051173;28;20040;-71
2022/12/15 10:08:02;;;;;;;46.58;33.58;;;;;;;9.07;100.00;99231.50;5071724;28;20036;-71
2022/12/15 10:10:39;;;;;;;44.55;32.22;;;;;;;9.52;100.00;99364.34;5075206;28;20122;-71
2022/12/15 10:13:13;;;;;;;44.60;32.00;;;;;;;9.51;100.00;99314.47;5040842;28;20127;-70
2022/12/15 10:15:54;;;;;;;49.22;34.95;;;;;;;9.90;100.00;99374.03;4724783;28;10000204;-70
2022/12/15 10:18:52;;;;;;;62.63;41.10;;;;;;;9.71;100.00;99362.84;5077545;28;20039;-69
2022/12/15 10:21:18;;;;;;;40.75;30.92;;;;;;;9.72;100.00;99376.34;5070214;28;20281;-70
2022/12/15 10:23:43;;;;;;;43.25;30.25;;;;;;;9.45;100.00;99378.09;5070308;28;20020;-69
2022/12/15 10:26:19;;;;;;;43.33;31.35;;;;;;;9.15;100.00;99306.41;5055253;28;20032;-69
2022/12/15 10:29:09;;;;;;;40.60;29.33;;;;;;;9.80;100.00;99290.63;5049075;28;20107;-70
2022/12/15 10:31:52;;;;;;;41.00;29.92;;;;;;;9.85;100.00;99385.19;5050622;28;20029;-69
2022/12/15 10:34:23;;;;;;;49.08;34.33;;;;;;;10.16;100.00;99406.16;5048867;28;20033;-69
2022/12/15 10:36:50;;;;;;;46.15;33.90;;;;;;;9.90;100.00;99310.56;5051185;28;20024;-70
2022/12/15 10:39:16;;;;;;;41.72;30.38;;;;;;;10.23;100.00;99388.09;5058837;28;20072;-70
2022/12/15 10:41:42;;;;;;;38.63;27.17;;;;;;;10.12;100.00;99369.03;5070231;28;20617;-69
2022/12/15 10:44:24;;;;;;;30.23;21.90;;;;;;;10.71;100.00;99311.72;5072940;28;20024;-70
2022/12/15 10:47:07;;;;;;;;;;;;;;;10.87;100.00;99390.75;5064733;28;20542;-69
2022/12/15 10:49:33;;;;;;;43.88;28.67;;;;;;;10.39;100.00;99391.72;5072852;28;19912;-70
2022/12/15 10:51:59;;;;;;;36.85;27.75;;;;;;;9.94;100.00;99421.28;5072266;28;20119;-69
2022/12/15 10:54:42;;;;;;;58.47;36.30;;;;;;;10.13;100.00;99398.63;5072375;28;20032;-70
2022/12/15 10:57:56;;;;;;;40.55;28.05;;;;;;;10.19;100.00;99393.31;5072686;28;20032;-70
2022/12/15 11:00:28;;;;;;;38.38;28.50;;;;;;;9.58;100.00;99306.63;5053659;28;20044;-70
2022/12/15 11:02:54;;;;;;;39.33;29.38;;;;;;;10.10;100.00;99336.06;5071781;28;20494;-70
2022/12/15 11:05:20;;;;;;;41.80;28.95;;;;;;;10.11;100.00;99325.03;5071954;28;20120;-70
2022/12/15 11:07:50;;;;;;;40.63;28.35;;;;;;;10.49;100.00;99399.84;5071560;28;20139;-69
2022/12/15 11:10:26;;;;;;;42.95;30.50;;;;;;;10.51;100.00;99392.16;5071253;28;20032;-69
2022/12/15 11:13:14;;;;;;;40.45;29.65;;;;;;;9.78;100.00;99308.47;5071454;28;20513;-69
2022/12/15 11:15:51;;;;;;;39.10;27.40;;;;;;;10.30;100.00;99407.28;5071692;28;20032;-69
2022/12/15 11:18:35;;;;;;;42.17;30.63;;;;;;;10.66;100.00;99402.56;5072135;28;20033;-69
2022/12/15 11:21:14;;;;;;;42.70;30.85;;;;;;;10.76;100.00;99392.88;5071661;28;20506;-69
2022/12/15 11:23:58;;;;;;;41.05;30.65;;;;;;;10.46;100.00;99416.00;5071860;28;20024;-69
2022/12/15 11:27:02;;;;;;;39.95;27.33;;;;;;;10.64;100.00;99404.34;5053431;28;20052;-70
2022/12/15 11:29:45;;;;;;;39.78;28.02;;;;;;;10.63;100.00;99401.88;5059089;28;20087;-68
2022/12/15 11:32:12;;;;;;;38.35;26.45;;;;;;;10.63;100.00;99401.88;5071542;28;20036;-69
2022/12/15 11:34:46;;;;;;;34.85;26.75;;;;;;;10.53;100.00;99350.56;5071366;28;20033;-69
2022/12/15 11:37:17;;;;;;;42.65;31.65;;;;;;;10.61;100.00;99388.38;5068726;28;20495;-69
2022/12/15 11:40:04;;;;;;;36.45;27.92;;;;;;;10.85;100.00;99412.88;5071493;28;20059;-69
2022/12/15 11:42:49;;;;;;;35.03;26.33;;;;;;;10.92;100.00;99404.13;5070128;28;20033;-69
2022/12/15 11:45:29;;;;;;;40.03;28.88;;;;;;;11.08;100.00;99416.19;5071366;28;20052;-69
2022/12/15 11:48:09;;;;;;;41.55;29.00;;;;;;;11.07;100.00;99434.88;5071258;28;20039;-69
2022/12/15 11:50:47;;;;;;;41.47;30.30;;;;;;;11.23;100.00;99435.94;5069606;28;20355;-69
2022/12/15 11:53:50;;;;;;;38.80;27.92;;;;;;;11.27;100.00;99436.63;5070956;28;20025;-69
2022/12/15 11:56:31;;;;;;;40.38;28.00;;;;;;;10.54;100.00;99352.19;5071347;28;20111;-70
2022/12/15 11:59:21;;;;;;;37.45;27.42;;;;;;;11.06;100.00;99435.75;5070990;28;20052;-68
2022/12/15 12:02:01;;;;;;;53.42;39.22;;;;;;;10.51;100.00;99362.50;5069314;28;20055;-70
2022/12/15 12:04:36;;;;;;;53.55;35.60;;;;;;;11.22;100.00;99452.09;5069465;28;20039;-69
2022/12/15 12:07:12;;;;;;;39.13;28.52;;;;;;;10.30;100.00;99313.28;5070639;28;20081;-69
2022/12/15 12:09:58;;;;;;;40.50;28.88;;;;;;;11.09;100.00;99424.66;5071075;28;20033;-69
2022/12/15 12:12:37;;;;;;;33.03;24.83;;;;;;;11.18;100.00;99439.53;5071005;28;20029;-69
2022/12/15 12:15:11;;;;;;;37.20;25.73;;;;;;;11.42;100.00;99448.75;5070782;28;20154;-69
2022/12/15 12:17:45;;;;;;;37.92;27.08;;;;;;;11.41;100.00;99454.72;5069402;28;20059;-69
2022/12/15 12:20:22;;;;;;;36.55;26.10;;;;;;;11.33;100.00;99446.56;5070662;28;20063;-69
2022/12/15 12:22:48;;;;;;;36.92;27.65;;;;;;;11.57;100.00;99458.31;5070396;28;20041;-69
2022/12/15 12:25:20;;;;;;;33.10;24.63;;;;;;;11.49;100.00;99434.09;5069431;28;20035;-69
2022/12/15 12:27:51;;;;;;;39.30;27.55;;;;;;;11.73;100.00;99476.38;5070437;28;20012;-69
2022/12/15 12:30:21;;;;;;;39.92;27.98;;;;;;;11.44;100.00;99457.16;5069357;28;20407;-69
2022/12/15 12:33:10;;;;;;;42.53;30.13;;;;;;;11.32;100.00;99416.94;5069073;28;20040;-69
2022/12/15 12:35:49;;;;;;;46.47;31.83;;;;;;;11.10;100.00;99404.25;5070223;28;20032;-70
2022/12/15 12:38:21;;;;;;;40.17;28.50;;;;;;;11.50;100.00;99467.09;5070535;28;20083;-69
2022/12/15 12:41:05;;;;;;;48.70;34.70;;;;;;;11.55;100.00;99483.00;5070284;28;20115;-69
2022/12/15 12:43:34;;;;;;;61.88;39.45;;;;;;;10.94;100.00;99423.53;5070456;28;20027;-69
2022/12/15 12:46:24;;;;;;;55.50;34.90;;;;;;;11.42;100.00;99492.03;5070482;28;20428;-69
2022/12/15 12:48:55;;;;;;;36.53;26.63;;;;;;;11.40;100.00;99483.63;5070866;28;20118;-70
2022/12/15 12:51:30;;;;;;;41.60;28.75;;;;;;;11.46;100.00;99477.47;5070165;28;20158;-69
2022/12/15 12:53:57;;;;;;;36.10;25.75;;;;;;;11.40;100.00;99463.25;5070209;28;20024;-69
2022/12/15 12:56:28;;;;;;;30.63;22.58;;;;;;;11.31;100.00;99492.44;5070550;28;20032;-69
2022/12/15 12:58:54;;;;;;;34.03;24.08;;;;;;;11.03;100.00;99424.91;5070202;28;20500;-69
2022/12/15 13:01:34;;;;;;;30.05;21.80;;;;;;;11.18;100.00;99500.59;5068801;28;20198;-70
2022/12/15 13:04:29;;;;;;;36.33;24.80;;;;;;;11.41;100.00;99503.06;5073506;28;20085;-69
2022/12/15 13:06:54;;;;;;;32.53;23.92;;;;;;;11.41;100.00;99508.16;5072283;28;20119;-69
2022/12/15 13:09:22;;;;;;;29.55;21.35;;;;;;;10.68;100.00;99427.91;5074520;28;20113;-70
2022/12/15 13:11:47;;;;;;;27.10;20.80;;;;;;;11.13;100.00;99510.94;5074444;28;20070;-70
2022/12/15 13:14:17;;;;;;;32.10;23.50;;;;;;;11.17;100.00;99491.31;5074308;28;20036;-70
2022/12/15 13:16:44;;;;;;;38.35;30.92;;;;;;;11.10;100.00;99505.16;5074391;28;20542;-70
2022/12/15 13:19:10;;;;;;;47.33;36.00;;;;;;;11.13;100.00;99503.31;5073675;28;20491;-69
2022/12/15 13:21:44;;;;;;;35.08;24.92;;;;;;;11.20;100.00;99524.28;5074202;28;20508;-70
2022/12/15 13:24:30;;;;;;;36.33;26.33;;;;;;;11.21;100.00;99533.56;5074123;28;20653;-70
2022/12/15 13:27:04;;;;;;;33.28;23.65;;;;;;;11.11;100.00;99527.97;5072635;28;20498;-70
2022/12/15 13:29:30;;;;;;;33.00;23.65;;;;;;;10.60;100.00;99442.66;5073834;28;20493;-70
2022/12/15 13:31:55;;;;;;;34.60;25.15;;;;;;;11.05;100.00;99535.03;5072263;28;20119;-70
2022/12/15 13:34:23;;;;;;;29.98;22.10;;;;;;;10.95;100.00;99493.81;5072619;28;20123;-70
2022/12/15 13:36:52;;;;;;;30.70;22.10;;;;;;;11.04;100.00;99562.16;5072719;28;20021;-69
2022/12/15 13:39:17;;;;;;;32.60;24.08;;;;;;;10.98;100.00;99566.66;5073817;28;20532;-70
2022/12/15 13:42:02;;;;;;;35.50;26.92;;;;;;;11.04;100.00;99572.34;5073738;28;20024;-70
2022/12/15 13:44:34;;;;;;;29.00;23.33;;;;;;;10.99;100.00;99576.75;5071856;28;20040;-70
2022/12/15 13:47:09;;;;;;;36.63;24.77;;;;;;;11.06;100.00;99570.56;5073956;28;20163;-70
2022/12/15 13:50:07;;;;;;;33.13;24.20;;;;;;;11.01;100.00;99577.53;5073844;28;20029;-70
2022/12/15 13:52:43;;;;;;;36.47;27.23;;;;;;;10.19;100.00;99437.34;5073695;28;20090;-70